sensor_id;sensor_type;location;lat;lon;timestamp;pressure;altitude;pressure_sealevel;temperature;humidity
27643;BME280;15053;48.618;10.024;2023-03-03T00:01:43;94296.56;;;3.84;78.12
27643;BME280;15053;48.618;10.024;2023-03-03T00:04:09;94291.94;;;3.86;77.96
27643;BME280;15053;48.618;10.024;2023-03-03T00:06:35;94295.59;;;3.90;77.90
27643;BME280;15053;48.618;10.024;2023-03-03T00:09:02;94294.09;;;3.94;78.05
27643;BME280;15053;48.618;10.024;2023-03-03T00:11:28;94294.13;;;3.99;78.10
27643;BME280;15053;48.618;10.024;2023-03-03T00:13:55;94298.25;;;4.00;77.61
27643;BME280;15053;48.618;10.024;2023-03-03T00:16:25;94294.69;;;4.01;77.65
27643;BME280;15053;48.618;10.024;2023-03-03T00:18:53;94296.47;;;4.00;77.56
27643;BME280;15053;48.618;10.024;2023-03-03T00:21:30;94297.78;;;4.03;77.63
27643;BME280;15053;48.618;10.024;2023-03-03T00:26:35;94294.97;;;4.09;77.54
27643;BME280;15053;48.618;10.024;2023-03-03T00:29:25;94301.47;;;4.12;77.46
27643;BME280;15053;48.618;10.024;2023-03-03T00:31:53;94303.25;;;4.11;77.68
27643;BME280;15053;48.618;10.024;2023-03-03T00:34:25;94303.00;;;4.13;77.44
27643;BME280;15053;48.618;10.024;2023-03-03T00:36:54;94305.34;;;4.14;77.00
27643;BME280;15053;48.618;10.024;2023-03-03T00:39:37;94299.16;;;4.15;77.36
27643;BME280;15053;48.618;10.024;2023-03-03T00:42:14;94296.84;;;4.14;77.52
27643;BME280;15053;48.618;10.024;2023-03-03T00:44:43;94298.09;;;4.11;77.55
27643;BME280;15053;48.618;10.024;2023-03-03T00:47:35;94302.78;;;4.14;77.31
27643;BME280;15053;48.618;10.024;2023-03-03T00:52:35;94303.00;;;4.13;77.24
27643;BME280;15053;48.618;10.024;2023-03-03T00:55:02;94300.94;;;4.15;77.50
27643;BME280;15053;48.618;10.024;2023-03-03T00:57:29;94288.53;;;4.07;77.45
27643;BME280;15053;48.618;10.024;2023-03-03T00:59:56;94300.91;;;4.10;77.51
27643;BME280;15053;48.618;10.024;2023-03-03T01:02:23;94294.75;;;4.11;77.74
27643;BME280;15053;48.618;10.024;2023-03-03T01:04:51;94296.84;;;4.14;77.46
27643;BME280;15053;48.618;10.024;2023-03-03T01:07:18;94298.66;;;4.18;77.55
27643;BME280;15053;48.618;10.024;2023-03-03T01:09:45;94287.88;;;4.22;77.95
27643;BME280;15053;48.618;10.024;2023-03-03T01:12:11;94301.06;;;4.25;77.43
27643;BME280;15053;48.618;10.024;2023-03-03T01:14:38;94295.41;;;4.28;77.55
27643;BME280;15053;48.618;10.024;2023-03-03T01:17:05;94290.25;;;4.28;77.14
27643;BME280;15053;48.618;10.024;2023-03-03T01:19:32;94294.38;;;4.29;76.89
27643;BME280;15053;48.618;10.024;2023-03-03T01:21:58;94294.09;;;4.26;76.84
27643;BME280;15053;48.618;10.024;2023-03-03T01:24:25;94287.09;;;4.21;77.14
27643;BME280;15053;48.618;10.024;2023-03-03T01:26:51;94292.25;;;4.21;77.08
27643;BME280;15053;48.618;10.024;2023-03-03T01:29:18;94288.88;;;4.21;76.83
27643;BME280;15053;48.618;10.024;2023-03-03T01:31:44;94286.88;;;4.23;77.16
27643;BME280;15053;48.618;10.024;2023-03-03T01:34:11;94286.59;;;4.24;76.94
27643;BME280;15053;48.618;10.024;2023-03-03T01:36:37;94291.53;;;4.26;76.74
27643;BME280;15053;48.618;10.024;2023-03-03T01:39:03;94292.06;;;4.28;76.79
27643;BME280;15053;48.618;10.024;2023-03-03T01:41:30;94294.91;;;4.31;76.90
27643;BME280;15053;48.618;10.024;2023-03-03T01:44:00;94295.97;;;4.35;76.66
27643;BME280;15053;48.618;10.024;2023-03-03T01:46:31;94291.09;;;4.39;76.21
27643;BME280;15053;48.618;10.024;2023-03-03T01:49:02;94289.53;;;4.38;76.23
27643;BME280;15053;48.618;10.024;2023-03-03T01:51:35;94289.25;;;4.34;76.28
27643;BME280;15053;48.618;10.024;2023-03-03T01:54:05;94284.06;;;4.29;76.18
27643;BME280;15053;48.618;10.024;2023-03-03T01:56:37;94283.00;;;4.25;76.21
27643;BME280;15053;48.618;10.024;2023-03-03T01:59:06;94285.03;;;4.23;76.54
27643;BME280;15053;48.618;10.024;2023-03-03T02:01:35;94292.78;;;4.23;76.50
27643;BME280;15053;48.618;10.024;2023-03-03T02:04:02;94289.19;;;4.24;76.45
27643;BME280;15053;48.618;10.024;2023-03-03T02:06:34;94278.34;;;4.22;76.32
27643;BME280;15053;48.618;10.024;2023-03-03T02:09:37;94279.63;;;4.20;76.61
27643;BME280;15053;48.618;10.024;2023-03-03T02:12:09;94283.47;;;4.17;77.08
27643;BME280;15053;48.618;10.024;2023-03-03T02:14:37;94274.69;;;4.18;76.69
27643;BME280;15053;48.618;10.024;2023-03-03T02:17:04;94273.69;;;4.19;77.23
27643;BME280;15053;48.618;10.024;2023-03-03T02:19:51;94277.28;;;4.18;76.88
27643;BME280;15053;48.618;10.024;2023-03-03T02:22:25;94268.97;;;4.11;77.53
27643;BME280;15053;48.618;10.024;2023-03-03T02:24:59;94271.50;;;4.01;77.13
27643;BME280;15053;48.618;10.024;2023-03-03T02:27:28;94270.91;;;3.94;77.30
27643;BME280;15053;48.618;10.024;2023-03-03T02:29:57;94266.50;;;3.89;77.13
27643;BME280;15053;48.618;10.024;2023-03-03T02:32:33;94273.44;;;3.89;77.29
27643;BME280;15053;48.618;10.024;2023-03-03T02:34:59;94267.75;;;3.87;77.44
27643;BME280;15053;48.618;10.024;2023-03-03T02:37:26;94270.06;;;3.88;77.68
27643;BME280;15053;48.618;10.024;2023-03-03T02:39:53;94263.66;;;3.91;77.35
27643;BME280;15053;48.618;10.024;2023-03-03T02:42:23;94268.31;;;3.94;77.58
27643;BME280;15053;48.618;10.024;2023-03-03T02:44:53;94262.88;;;3.90;77.83
27643;BME280;15053;48.618;10.024;2023-03-03T02:47:20;94266.50;;;3.89;77.72
27643;BME280;15053;48.618;10.024;2023-03-03T02:49:46;94264.69;;;3.90;77.51
27643;BME280;15053;48.618;10.024;2023-03-03T02:52:13;94263.66;;;3.91;77.44
27643;BME280;15053;48.618;10.024;2023-03-03T02:54:43;94262.38;;;3.93;77.65
27643;BME280;15053;48.618;10.024;2023-03-03T02:57:10;94264.72;;;3.95;77.37
27643;BME280;15053;48.618;10.024;2023-03-03T02:59:36;94257.50;;;3.92;77.62
27643;BME280;15053;48.618;10.024;2023-03-03T03:02:08;94257.22;;;3.93;77.95
27643;BME280;15053;48.618;10.024;2023-03-03T03:04:36;94269.09;;;3.94;77.88
27643;BME280;15053;48.618;10.024;2023-03-03T03:07:03;94266.28;;;3.96;77.80
27643;BME280;15053;48.618;10.024;2023-03-03T03:09:32;94265.50;;;3.95;78.12
27643;BME280;15053;48.618;10.024;2023-03-03T03:11:58;94261.13;;;3.96;77.83
27643;BME280;15053;48.618;10.024;2023-03-03T03:14:30;94263.16;;;3.94;77.91
27643;BME280;15053;48.618;10.024;2023-03-03T03:16:57;94266.75;;;3.93;77.66
27643;BME280;15053;48.618;10.024;2023-03-03T03:19:26;94267.75;;;3.87;77.83
27643;BME280;15053;48.618;10.024;2023-03-03T03:21:53;94268.25;;;3.84;78.14
27643;BME280;15053;48.618;10.024;2023-03-03T03:24:20;94264.63;;;3.85;78.43
27643;BME280;15053;48.618;10.024;2023-03-03T03:26:53;94266.69;;;3.83;77.87
27643;BME280;15053;48.618;10.024;2023-03-03T03:29:21;94265.13;;;3.82;78.24
27643;BME280;15053;48.618;10.024;2023-03-03T03:31:47;94267.94;;;3.80;78.35
27643;BME280;15053;48.618;10.024;2023-03-03T03:34:14;94270.47;;;3.75;78.06
27643;BME280;15053;48.618;10.024;2023-03-03T03:36:42;94271.44;;;3.69;78.52
27643;BME280;15053;48.618;10.024;2023-03-03T03:39:10;94264.72;;;3.68;78.64
27643;BME280;15053;48.618;10.024;2023-03-03T03:41:40;94271.16;;;3.66;78.62
27643;BME280;15053;48.618;10.024;2023-03-03T03:44:07;94268.31;;;3.62;78.89
27643;BME280;15053;48.618;10.024;2023-03-03T03:46:33;94271.09;;;3.61;78.78
27643;BME280;15053;48.618;10.024;2023-03-03T03:49:00;94272.66;;;3.62;78.82
27643;BME280;15053;48.618;10.024;2023-03-03T03:51:27;94270.09;;;3.62;78.91
27643;BME280;15053;48.618;10.024;2023-03-03T03:53:53;94265.72;;;3.62;79.50
27643;BME280;15053;48.618;10.024;2023-03-03T03:56:20;94270.09;;;3.62;79.33
27643;BME280;15053;48.618;10.024;2023-03-03T03:58:50;94267.75;;;3.60;79.29
27643;BME280;15053;48.618;10.024;2023-03-03T04:01:17;94260.75;;;3.55;78.95
27643;BME280;15053;48.618;10.024;2023-03-03T04:03:46;94272.91;;;3.60;79.44
27643;BME280;15053;48.618;10.024;2023-03-03T04:06:17;94273.94;;;3.59;79.70
27643;BME280;15053;48.618;10.024;2023-03-03T04:08:45;94268.44;;;3.50;79.15
27643;BME280;15053;48.618;10.024;2023-03-03T04:11:12;94281.84;;;3.52;79.77
27643;BME280;15053;48.618;10.024;2023-03-03T04:13:40;94283.09;;;3.50;79.72
27643;BME280;15053;48.618;10.024;2023-03-03T04:16:08;94285.94;;;3.48;79.56
27643;BME280;15053;48.618;10.024;2023-03-03T04:18:35;94276.13;;;3.45;79.69
27643;BME280;15053;48.618;10.024;2023-03-03T04:21:02;94274.53;;;3.44;79.62
27643;BME280;15053;48.618;10.024;2023-03-03T04:23:30;94280.47;;;3.45;80.15
27643;BME280;15053;48.618;10.024;2023-03-03T04:25:58;94272.50;;;3.46;80.26
27643;BME280;15053;48.618;10.024;2023-03-03T04:28:25;94277.16;;;3.49;80.39
27643;BME280;15053;48.618;10.024;2023-03-03T04:30:52;94281.06;;;3.52;80.30
27643;BME280;15053;48.618;10.024;2023-03-03T04:33:20;94277.94;;;3.50;80.21
27643;BME280;15053;48.618;10.024;2023-03-03T04:35:48;94287.34;;;3.61;80.45
27643;BME280;15053;48.618;10.024;2023-03-03T04:38:14;94283.00;;;3.67;80.55
27643;BME280;15053;48.618;10.024;2023-03-03T04:40:42;94279.44;;;3.68;80.50
27643;BME280;15053;48.618;10.024;2023-03-03T04:43:10;94283.00;;;3.67;79.96
27643;BME280;15053;48.618;10.024;2023-03-03T04:45:37;94273.41;;;3.57;79.64
27643;BME280;15053;48.618;10.024;2023-03-03T04:48:05;94286.38;;;3.67;79.75
27643;BME280;15053;48.618;10.024;2023-03-03T04:50:33;94292.81;;;3.70;79.60
27643;BME280;15053;48.618;10.024;2023-03-03T04:53:00;94292.03;;;3.69;79.54
27643;BME280;15053;48.618;10.024;2023-03-03T04:55:27;94294.41;;;3.71;79.22
27643;BME280;15053;48.618;10.024;2023-03-03T04:57:53;94296.41;;;3.69;79.18
27643;BME280;15053;48.618;10.024;2023-03-03T05:00:21;94287.69;;;3.70;79.44
27643;BME280;15053;48.618;10.024;2023-03-03T05:02:47;94287.69;;;3.70;79.25
27643;BME280;15053;48.618;10.024;2023-03-03T05:05:14;94284.56;;;3.68;79.34
27643;BME280;15053;48.618;10.024;2023-03-03T05:07:40;94294.63;;;3.69;79.64
27643;BME280;15053;48.618;10.024;2023-03-03T05:10:07;94293.34;;;3.72;79.67
27643;BME280;15053;48.618;10.024;2023-03-03T05:12:34;94291.25;;;3.69;79.33
27643;BME280;15053;48.618;10.024;2023-03-03T05:15:00;94294.63;;;3.69;79.22
27643;BME280;15053;48.618;10.024;2023-03-03T05:17:27;94290.47;;;3.68;79.14
27643;BME280;15053;48.618;10.024;2023-03-03T05:19:53;94297.44;;;3.68;79.18
27643;BME280;15053;48.618;10.024;2023-03-03T05:22:23;94303.13;;;3.70;79.55
27643;BME280;15053;48.618;10.024;2023-03-03T05:24:49;94301.34;;;3.70;79.00
27643;BME280;15053;48.618;10.024;2023-03-03T05:27:16;94301.56;;;3.69;79.02
27643;BME280;15053;48.618;10.024;2023-03-03T05:29:43;94293.31;;;3.67;79.45
27643;BME280;15053;48.618;10.024;2023-03-03T05:32:10;94300.03;;;3.68;79.02
27643;BME280;15053;48.618;10.024;2023-03-03T05:34:36;94303.13;;;3.70;79.12
27643;BME280;15053;48.618;10.024;2023-03-03T05:37:03;94308.28;;;3.70;78.94
27643;BME280;15053;48.618;10.024;2023-03-03T05:39:32;94303.13;;;3.70;78.96
27643;BME280;15053;48.618;10.024;2023-03-03T05:41:59;94302.13;;;3.71;79.04
27643;BME280;15053;48.618;10.024;2023-03-03T05:44:26;94304.41;;;3.67;79.08
27643;BME280;15053;48.618;10.024;2023-03-03T05:46:53;94308.75;;;3.67;79.26
27643;BME280;15053;48.618;10.024;2023-03-03T05:49:21;94306.97;;;3.67;79.03
27643;BME280;15053;48.618;10.024;2023-03-03T05:51:48;94318.28;;;3.66;79.11
27643;BME280;15053;48.618;10.024;2023-03-03T05:54:14;94314.38;;;3.64;79.08
27643;BME280;15053;48.618;10.024;2023-03-03T05:56:41;94321.34;;;3.63;78.94
27643;BME280;15053;48.618;10.024;2023-03-03T05:59:07;94322.13;;;3.64;79.22
27643;BME280;15053;48.618;10.024;2023-03-03T06:01:34;94325.94;;;3.61;79.36
27643;BME280;15053;48.618;10.024;2023-03-03T06:04:00;94328.78;;;3.60;79.25
27643;BME280;15053;48.618;10.024;2023-03-03T06:06:27;94336.97;;;3.56;79.12
27643;BME280;15053;48.618;10.024;2023-03-03T06:08:53;94334.88;;;3.53;79.17
27643;BME280;15053;48.618;10.024;2023-03-03T06:11:22;94328.16;;;3.52;79.22
27643;BME280;15053;48.618;10.024;2023-03-03T06:13:49;94335.53;;;3.44;79.25
27643;BME280;15053;48.618;10.024;2023-03-03T06:16:16;94338.94;;;3.49;79.53
27643;BME280;15053;48.618;10.024;2023-03-03T06:18:43;94325.00;;;3.45;79.33
27643;BME280;15053;48.618;10.024;2023-03-03T06:21:10;94341.53;;;3.49;79.41
27643;BME280;15053;48.618;10.024;2023-03-03T06:23:36;94342.00;;;3.46;79.90
27643;BME280;15053;48.618;10.024;2023-03-03T06:26:03;94341.00;;;3.47;79.45
27643;BME280;15053;48.618;10.024;2023-03-03T06:28:29;94345.13;;;3.48;79.52
27643;BME280;15053;48.618;10.024;2023-03-03T06:30:56;94348.75;;;3.52;79.61
27643;BME280;15053;48.618;10.024;2023-03-03T06:33:22;94345.19;;;3.53;79.32
27643;BME280;15053;48.618;10.024;2023-03-03T06:35:53;94344.41;;;3.53;79.49
27643;BME280;15053;48.618;10.024;2023-03-03T06:38:20;94349.56;;;3.53;79.69
27643;BME280;15053;48.618;10.024;2023-03-03T06:40:46;94350.81;;;3.50;79.48
27643;BME280;15053;48.618;10.024;2023-03-03T06:43:13;94353.44;;;3.55;80.30
27643;BME280;15053;48.618;10.024;2023-03-03T06:45:39;94346.03;;;3.59;80.02
27643;BME280;15053;48.618;10.024;2023-03-03T06:48:06;94352.00;;;3.65;79.87
27643;BME280;15053;48.618;10.024;2023-03-03T06:50:32;94355.34;;;3.65;80.25
27643;BME280;15053;48.618;10.024;2023-03-03T06:53:06;94357.16;;;3.65;80.11
27643;BME280;15053;48.618;10.024;2023-03-03T06:55:35;94362.00;;;3.61;79.57
27643;BME280;15053;48.618;10.024;2023-03-03T06:58:08;94368.34;;;3.53;79.56
27643;BME280;15053;48.618;10.024;2023-03-03T07:00:37;94374.19;;;3.49;79.74
27643;BME280;15053;48.618;10.024;2023-03-03T07:03:12;94366.41;;;3.44;79.82
27643;BME280;15053;48.618;10.024;2023-03-03T07:05:39;94374.09;;;3.39;79.68
27643;BME280;15053;48.618;10.024;2023-03-03T07:08:13;94373.31;;;3.38;80.04
27643;BME280;15053;48.618;10.024;2023-03-03T07:10:41;94381.81;;;3.39;80.03
27643;BME280;15053;48.618;10.024;2023-03-03T07:13:27;94380.81;;;3.40;79.73
27643;BME280;15053;48.618;10.024;2023-03-03T07:15:56;94385.47;;;3.43;79.86
27643;BME280;15053;48.618;10.024;2023-03-03T07:18:25;94385.75;;;3.46;79.83
27643;BME280;15053;48.618;10.024;2023-03-03T07:20:58;94389.91;;;3.47;79.96
27643;BME280;15053;48.618;10.024;2023-03-03T07:23:38;94387.81;;;3.44;79.96
27643;BME280;15053;48.618;10.024;2023-03-03T07:26:13;94392.34;;;3.37;79.81
27643;BME280;15053;48.618;10.024;2023-03-03T07:28:42;94403.13;;;3.34;80.38
27643;BME280;15053;48.618;10.024;2023-03-03T07:33:54;94394.69;;;3.39;80.74
27643;BME280;15053;48.618;10.024;2023-03-03T07:36:26;94402.25;;;3.45;80.52
27643;BME280;15053;48.618;10.024;2023-03-03T07:38:56;94399.94;;;3.49;80.96
27643;BME280;15053;48.618;10.024;2023-03-03T07:41:23;94405.72;;;3.56;80.43
27643;BME280;15053;48.618;10.024;2023-03-03T07:43:52;94408.34;;;3.61;80.53
27643;BME280;15053;48.618;10.024;2023-03-03T07:46:28;94407.09;;;3.64;80.37
27643;BME280;15053;48.618;10.024;2023-03-03T07:48:57;94405.81;;;3.66;80.10
27643;BME280;15053;48.618;10.024;2023-03-03T07:51:27;94408.94;;;3.68;80.34
27643;BME280;15053;48.618;10.024;2023-03-03T07:54:16;94406.19;;;3.75;80.28
27643;BME280;15053;48.618;10.024;2023-03-03T07:56:48;94419.69;;;3.82;80.29
27643;BME280;15053;48.618;10.024;2023-03-03T07:59:20;94415.59;;;3.86;79.34
27643;BME280;15053;48.618;10.024;2023-03-03T08:01:53;94410.91;;;3.83;79.36
27643;BME280;15053;48.618;10.024;2023-03-03T08:04:40;94407.31;;;3.84;79.14
27643;BME280;15053;48.618;10.024;2023-03-03T08:07:13;94413.00;;;3.86;79.15
27643;BME280;15053;48.618;10.024;2023-03-03T08:09:43;94420.72;;;3.86;79.11
27643;BME280;15053;48.618;10.024;2023-03-03T08:12:51;94431.34;;;3.89;79.51
27643;BME280;15053;48.618;10.024;2023-03-03T08:15:21;94422.34;;;3.92;79.61
27643;BME280;15053;48.618;10.024;2023-03-03T08:17:50;94413.09;;;3.96;79.21
27643;BME280;15053;48.618;10.024;2023-03-03T08:20:51;94410.84;;;3.99;79.34
27643;BME280;15053;48.618;10.024;2023-03-03T08:23:19;94409.88;;;4.05;78.92
27643;BME280;15053;48.618;10.024;2023-03-03T08:25:47;94404.72;;;4.05;78.68
27643;BME280;15053;48.618;10.024;2023-03-03T08:28:14;94417.44;;;4.12;78.85
27643;BME280;15053;48.618;10.024;2023-03-03T08:30:41;94415.66;;;4.17;78.72
27643;BME280;15053;48.618;10.024;2023-03-03T08:33:08;94413.91;;;4.23;78.85
27643;BME280;15053;48.618;10.024;2023-03-03T08:35:35;94414.81;;;4.34;79.14
27643;BME280;15053;48.618;10.024;2023-03-03T08:38:02;94409.97;;;4.42;78.63
27643;BME280;15053;48.618;10.024;2023-03-03T08:40:30;94406.91;;;4.45;78.11
27643;BME280;15053;48.618;10.024;2023-03-03T08:42:57;94401.81;;;4.50;78.13
27643;BME280;15053;48.618;10.024;2023-03-03T08:45:24;94405.69;;;4.53;77.59
27643;BME280;15053;48.618;10.024;2023-03-03T08:47:51;94405.72;;;4.58;78.36
27643;BME280;15053;48.618;10.024;2023-03-03T08:50:18;94411.44;;;4.65;78.10
27643;BME280;15053;48.618;10.024;2023-03-03T08:52:45;94408.91;;;4.70;77.98
27643;BME280;15053;48.618;10.024;2023-03-03T08:55:14;94408.19;;;4.74;78.13
27643;BME280;15053;48.618;10.024;2023-03-03T08:57:41;94411.28;;;4.76;77.68
27643;BME280;15053;48.618;10.024;2023-03-03T09:00:10;94414.41;;;4.78;77.18
27643;BME280;15053;48.618;10.024;2023-03-03T09:02:37;94413.94;;;4.87;77.61
27643;BME280;15053;48.618;10.024;2023-03-03T09:05:05;94428.47;;;4.98;77.73
27643;BME280;15053;48.618;10.024;2023-03-03T09:07:31;94424.94;;;5.09;77.30
27643;BME280;15053;48.618;10.024;2023-03-03T09:09:58;94419.56;;;5.15;76.57
27643;BME280;15053;48.618;10.024;2023-03-03T09:12:36;94440.53;;;5.24;76.67
27643;BME280;15053;48.618;10.024;2023-03-03T09:15:23;94431.53;;;5.26;75.65
27643;BME280;15053;48.618;10.024;2023-03-03T09:17:51;94447.31;;;5.35;75.99
27643;BME280;15053;48.618;10.024;2023-03-03T09:22:53;94455.94;;;5.56;75.75
27643;BME280;15053;48.618;10.024;2023-03-03T09:25:30;94460.41;;;5.65;75.54
27643;BME280;15053;48.618;10.024;2023-03-03T09:27:59;94459.38;;;5.71;75.34
27643;BME280;15053;48.618;10.024;2023-03-03T09:30:37;94453.75;;;5.79;74.79
27643;BME280;15053;48.618;10.024;2023-03-03T09:33:29;94451.19;;;5.84;74.52
27643;BME280;15053;48.618;10.024;2023-03-03T09:36:22;94456.16;;;5.96;74.38
27643;BME280;15053;48.618;10.024;2023-03-03T09:38:50;94452.34;;;6.04;73.94
27643;BME280;15053;48.618;10.024;2023-03-03T09:41:30;94459.59;;;6.12;73.30
27643;BME280;15053;48.618;10.024;2023-03-03T09:49:33;94462.78;;;6.39;72.91
27643;BME280;15053;48.618;10.024;2023-03-03T09:52:13;94465.16;;;6.50;72.89
27643;BME280;15053;48.618;10.024;2023-03-03T10:00:15;94463.13;;;6.88;71.92
27643;BME280;15053;48.618;10.024;2023-03-03T10:05:36;94461.84;;;7.05;70.09
27643;BME280;15053;48.618;10.024;2023-03-03T10:08:35;94468.56;;;7.11;70.14
27643;BME280;15053;48.618;10.024;2023-03-03T10:14:03;94475.03;;;7.29;68.01
27643;BME280;15053;48.618;10.024;2023-03-03T10:16:48;94471.41;;;7.40;68.55
27643;BME280;15053;48.618;10.024;2023-03-03T10:19:35;94462.06;;;7.49;67.93
27643;BME280;15053;48.618;10.024;2023-03-03T10:22:47;94454.00;;;7.66;67.91
27643;BME280;15053;48.618;10.024;2023-03-03T10:25:42;94460.97;;;7.76;65.86
27643;BME280;15053;48.618;10.024;2023-03-03T10:36:39;94460.59;;;8.07;62.72
27643;BME280;15053;48.618;10.024;2023-03-03T10:39:24;94469.16;;;8.03;62.83
27643;BME280;15053;48.618;10.024;2023-03-03T10:45:12;94470.97;;;8.07;62.48
27643;BME280;15053;48.618;10.024;2023-03-03T10:51:27;94469.22;;;7.93;61.10
27643;BME280;15053;48.618;10.024;2023-03-03T10:54:29;94469.47;;;7.96;60.99
27643;BME280;15053;48.618;10.024;2023-03-03T10:59:40;94476.13;;;8.17;61.01
27643;BME280;15053;48.618;10.024;2023-03-03T11:02:31;94479.72;;;8.26;61.22
27643;BME280;15053;48.618;10.024;2023-03-03T11:05:18;94476.09;;;8.27;61.22
27643;BME280;15053;48.618;10.024;2023-03-03T11:07:56;94476.59;;;8.29;61.46
27643;BME280;15053;48.618;10.024;2023-03-03T11:10:33;94479.19;;;8.35;61.04
27643;BME280;15053;48.618;10.024;2023-03-03T11:21:31;94478.63;;;8.43;59.90
27643;BME280;15053;48.618;10.024;2023-03-03T11:26:49;94480.75;;;8.30;60.29
27643;BME280;15053;48.618;10.024;2023-03-03T11:29:34;94479.19;;;8.29;59.79
27643;BME280;15053;48.618;10.024;2023-03-03T11:37:54;94480.69;;;8.46;59.17
27643;BME280;15053;48.618;10.024;2023-03-03T11:40:47;94472.66;;;8.42;59.55
27643;BME280;15053;48.618;10.024;2023-03-03T11:46:07;94474.22;;;8.43;59.02
27643;BME280;15053;48.618;10.024;2023-03-03T11:48:41;94465.59;;;8.53;58.70
27643;BME280;15053;48.618;10.024;2023-03-03T11:51:19;94461.69;;;8.55;58.52
27643;BME280;15053;48.618;10.024;2023-03-03T11:54:24;94460.69;;;8.51;57.58
27643;BME280;15053;48.618;10.024;2023-03-03T11:57:04;94454.47;;;8.47;57.87
27643;BME280;15053;48.618;10.024;2023-03-03T11:59:47;94462.47;;;8.56;58.35
27643;BME280;15053;48.618;10.024;2023-03-03T12:02:22;94455.16;;;8.63;58.39
27643;BME280;15053;48.618;10.024;2023-03-03T12:04:55;94447.84;;;8.70;57.79
27643;BME280;15053;48.618;10.024;2023-03-03T12:07:36;94443.91;;;8.77;57.76
27643;BME280;15053;48.618;10.024;2023-03-03T12:10:56;94444.03;;;8.96;57.26
27643;BME280;15053;48.618;10.024;2023-03-03T12:13:13;94448.09;;;9.07;57.11
27643;BME280;15053;48.618;10.024;2023-03-03T12:26:50;94442.31;;;9.44;55.80
27643;BME280;15053;48.618;10.024;2023-03-03T12:29:41;94444.09;;;9.48;55.28
27643;BME280;15053;48.618;10.024;2023-03-03T12:38:37;94443.00;;;9.55;54.95
27643;BME280;15053;48.618;10.024;2023-03-03T12:41:18;94442.88;;;9.65;54.95
27643;BME280;15053;48.618;10.024;2023-03-03T12:50:13;94430.84;;;10.21;54.02
27643;BME280;15053;48.618;10.024;2023-03-03T12:52:57;94433.81;;;10.71;53.06
27643;BME280;15053;48.618;10.024;2023-03-03T12:55:53;94432.38;;;11.29;51.74
27643;BME280;15053;48.618;10.024;2023-03-03T12:58:59;94417.91;;;11.69;50.78
27643;BME280;15053;48.618;10.024;2023-03-03T13:07:25;94427.41;;;12.91;47.16
27643;BME280;15053;48.618;10.024;2023-03-03T13:10:02;94431.75;;;12.95;47.07
27643;BME280;15053;48.618;10.024;2023-03-03T13:12:47;94422.72;;;13.01;45.71
27643;BME280;15053;48.618;10.024;2023-03-03T13:15:23;94427.91;;;13.37;45.43
27643;BME280;15053;48.618;10.024;2023-03-03T13:21:24;94416.88;;;13.88;43.99
27643;BME280;15053;48.618;10.024;2023-03-03T13:24:22;94413.72;;;14.08;43.46
27643;BME280;15053;48.618;10.024;2023-03-03T13:27:12;94416.31;;;14.39;43.18
27643;BME280;15053;48.618;10.024;2023-03-03T13:32:34;94407.38;;;15.00;43.35
27643;BME280;15053;48.618;10.024;2023-03-03T13:37:52;94411.38;;;14.89;41.40
27643;BME280;15053;48.618;10.024;2023-03-03T13:40:24;94414.00;;;14.98;41.53
27643;BME280;15053;48.618;10.024;2023-03-03T13:42:58;94405.97;;;15.03;41.35
27643;BME280;15053;48.618;10.024;2023-03-03T13:45:37;94404.44;;;15.19;40.69
27643;BME280;15053;48.618;10.024;2023-03-03T13:50:56;94403.47;;;15.49;40.84
27643;BME280;15053;48.618;10.024;2023-03-03T13:53:41;94398.66;;;15.60;40.73
27643;BME280;15053;48.618;10.024;2023-03-03T14:01:29;94391.44;;;15.48;39.22
27643;BME280;15053;48.618;10.024;2023-03-03T14:04:11;94386.63;;;15.42;39.25
27643;BME280;15053;48.618;10.024;2023-03-03T14:06:48;94380.75;;;15.45;40.00
27643;BME280;15053;48.618;10.024;2023-03-03T14:09:40;94383.94;;;15.67;39.55
27643;BME280;15053;48.618;10.024;2023-03-03T14:15:14;94383.66;;;15.98;37.93
27643;BME280;15053;48.618;10.024;2023-03-03T14:18:23;94378.97;;;15.74;38.23
27643;BME280;15053;48.618;10.024;2023-03-03T14:20:54;94375.31;;;15.96;38.72
27643;BME280;15053;48.618;10.024;2023-03-03T14:23:29;94370.97;;;16.00;38.11
27643;BME280;15053;48.618;10.024;2023-03-03T14:25:59;94378.78;;;15.79;38.48
27643;BME280;15053;48.618;10.024;2023-03-03T14:28:42;94375.50;;;15.91;38.87
27643;BME280;15053;48.618;10.024;2023-03-03T14:31:25;94370.78;;;16.05;38.37
27643;BME280;15053;48.618;10.024;2023-03-03T14:34:14;94371.13;;;16.04;38.03
27643;BME280;15053;48.618;10.024;2023-03-03T14:36:58;94376.34;;;16.12;38.13
27643;BME280;15053;48.618;10.024;2023-03-03T14:39:38;94368.78;;;16.02;38.23
27643;BME280;15053;48.618;10.024;2023-03-03T14:45:37;94368.78;;;16.02;37.98
27643;BME280;15053;48.618;10.024;2023-03-03T14:50:46;94369.44;;;15.99;37.67
27643;BME280;15053;48.618;10.024;2023-03-03T14:53:20;94384.56;;;16.02;38.33
27643;BME280;15053;48.618;10.024;2023-03-03T14:55:51;94374.88;;;16.23;38.05
27643;BME280;15053;48.618;10.024;2023-03-03T14:58:37;94376.50;;;16.36;37.78
27643;BME280;15053;48.618;10.024;2023-03-03T15:06:34;94381.66;;;16.24;37.98
27643;BME280;15053;48.618;10.024;2023-03-03T15:09:24;94373.91;;;16.48;38.45
27643;BME280;15053;48.618;10.024;2023-03-03T15:11:54;94367.28;;;16.72;37.95
27643;BME280;15053;48.618;10.024;2023-03-03T15:14:44;94372.34;;;16.77;37.16
27643;BME280;15053;48.618;10.024;2023-03-03T15:17:27;94365.19;;;16.98;36.50
27643;BME280;15053;48.618;10.024;2023-03-03T15:25:56;94362.50;;;22.20;28.31
27643;BME280;15053;48.618;10.024;2023-03-03T15:29:03;94362.78;;;24.08;25.64
27643;BME280;15053;48.618;10.024;2023-03-03T15:32:12;94350.28;;;25.85;23.74
27643;BME280;15053;48.618;10.024;2023-03-03T15:34:55;94365.84;;;26.71;22.54
27643;BME280;15053;48.618;10.024;2023-03-03T15:40:59;94357.38;;;27.08;21.43
27643;BME280;15053;48.618;10.024;2023-03-03T15:43:39;94363.97;;;27.65;21.35